KMUU weather

CLOSED Huntingdon County Airport
Pennsylvania, United States

Public forecast

Using degrees Fahrenheit for public forecast. Weather courtesy of forecast.io.

Closest aviation weather report (METAR) to Huntingdon County Airport

Closest report is Altoona Blair County Airport, 21.0 nm (39.0 km) W. Retrieved 2020/06/03 16:53 UTC (9 minutes ago):

KAOO 031653Z AUTO 25017G26KT 10SM FEW043 FEW085 26/17 A2978 RMK AO2 PK WND 25026/1648 SLP070 T02610172

Closest aviation forecast (TAF) to Huntingdon County Airport

Closest forecast is Altoona Blair County Airport, 21.0 nm (39.0 km) W. Retrieved 2020/06/03 12:40 UTC (4 hours ago):

TAF KAOO 031138Z 0312/0412 25010G20KT P6SM SCT050 BKN100 FM031500 26018G25KT P6SM BKN050 FM032000 27015G25KT P6SM VCTS BKN050CB TEMPO 0320/0324 3SM +TSRA OVC025CB FM040300 27008KT P6SM OVC050 FM040700 23004KT P6SM BKN060